sensor_id;sensor_type;location;lat;lon;timestamp;P1;durP1;ratioP1;P2;durP2;ratioP2
8001;SDS011;4046;48.774;8.732;2022-08-19T00:00:07;15.43;;;14.07;;
8001;SDS011;4046;48.774;8.732;2022-08-19T00:02:34;16.30;;;14.80;;
8001;SDS011;4046;48.774;8.732;2022-08-19T00:05:00;16.23;;;14.53;;
8001;SDS011;4046;48.774;8.732;2022-08-19T00:07:26;16.67;;;15.17;;
8001;SDS011;4046;48.774;8.732;2022-08-19T00:09:52;15.47;;;14.10;;
8001;SDS011;4046;48.774;8.732;2022-08-19T00:12:18;16.10;;;14.70;;
8001;SDS011;4046;48.774;8.732;2022-08-19T00:14:44;16.53;;;14.90;;
8001;SDS011;4046;48.774;8.732;2022-08-19T00:17:10;17.60;;;16.00;;
8001;SDS011;4046;48.774;8.732;2022-08-19T00:19:36;17.60;;;16.10;;
8001;SDS011;4046;48.774;8.732;2022-08-19T00:22:02;17.70;;;16.20;;
8001;SDS011;4046;48.774;8.732;2022-08-19T00:24:30;18.03;;;16.43;;
8001;SDS011;4046;48.774;8.732;2022-08-19T00:26:56;16.90;;;15.50;;
8001;SDS011;4046;48.774;8.732;2022-08-19T00:29:23;16.73;;;15.33;;
8001;SDS011;4046;48.774;8.732;2022-08-19T00:31:50;16.93;;;15.33;;
8001;SDS011;4046;48.774;8.732;2022-08-19T00:34:19;17.53;;;15.90;;
8001;SDS011;4046;48.774;8.732;2022-08-19T00:36:46;17.80;;;16.00;;
8001;SDS011;4046;48.774;8.732;2022-08-19T00:39:12;17.13;;;15.60;;
8001;SDS011;4046;48.774;8.732;2022-08-19T00:41:39;16.63;;;15.13;;
8001;SDS011;4046;48.774;8.732;2022-08-19T00:44:11;17.40;;;15.90;;
8001;SDS011;4046;48.774;8.732;2022-08-19T00:46:50;17.63;;;16.03;;
8001;SDS011;4046;48.774;8.732;2022-08-19T00:52:04;17.47;;;15.87;;
8001;SDS011;4046;48.774;8.732;2022-08-19T00:54:43;18.10;;;16.27;;
8001;SDS011;4046;48.774;8.732;2022-08-19T00:57:10;18.80;;;16.77;;
8001;SDS011;4046;48.774;8.732;2022-08-19T00:59:40;17.53;;;15.63;;
8001;SDS011;4046;48.774;8.732;2022-08-19T01:02:08;18.20;;;16.50;;
8001;SDS011;4046;48.774;8.732;2022-08-19T01:04:34;18.73;;;17.10;;
8001;SDS011;4046;48.774;8.732;2022-08-19T01:07:01;19.77;;;17.67;;
8001;SDS011;4046;48.774;8.732;2022-08-19T01:09:27;18.60;;;16.80;;
8001;SDS011;4046;48.774;8.732;2022-08-19T01:11:54;17.13;;;15.53;;
8001;SDS011;4046;48.774;8.732;2022-08-19T01:14:20;19.23;;;17.43;;
8001;SDS011;4046;48.774;8.732;2022-08-19T01:16:46;18.17;;;16.53;;
8001;SDS011;4046;48.774;8.732;2022-08-19T01:19:15;18.20;;;16.57;;
8001;SDS011;4046;48.774;8.732;2022-08-19T01:21:51;19.23;;;17.43;;
8001;SDS011;4046;48.774;8.732;2022-08-19T01:24:22;17.67;;;15.87;;
8001;SDS011;4046;48.774;8.732;2022-08-19T01:26:48;16.13;;;14.63;;
8001;SDS011;4046;48.774;8.732;2022-08-19T01:29:15;18.80;;;17.10;;
8001;SDS011;4046;48.774;8.732;2022-08-19T01:31:40;19.47;;;17.63;;
8001;SDS011;4046;48.774;8.732;2022-08-19T01:34:06;18.87;;;16.87;;
8001;SDS011;4046;48.774;8.732;2022-08-19T01:36:34;18.03;;;16.33;;
8001;SDS011;4046;48.774;8.732;2022-08-19T01:39:08;18.33;;;16.53;;
8001;SDS011;4046;48.774;8.732;2022-08-19T01:41:36;19.00;;;17.30;;
8001;SDS011;4046;48.774;8.732;2022-08-19T01:44:02;18.13;;;16.50;;
8001;SDS011;4046;48.774;8.732;2022-08-19T01:46:29;19.60;;;17.90;;
8001;SDS011;4046;48.774;8.732;2022-08-19T01:48:56;17.30;;;15.80;;
8001;SDS011;4046;48.774;8.732;2022-08-19T01:51:22;17.60;;;15.97;;
8001;SDS011;4046;48.774;8.732;2022-08-19T01:53:48;18.00;;;16.40;;
8001;SDS011;4046;48.774;8.732;2022-08-19T01:56:15;18.93;;;17.07;;
8001;SDS011;4046;48.774;8.732;2022-08-19T01:58:43;18.40;;;16.77;;
8001;SDS011;4046;48.774;8.732;2022-08-19T02:01:12;18.03;;;16.20;;
8001;SDS011;4046;48.774;8.732;2022-08-19T02:03:39;18.30;;;16.60;;
8001;SDS011;4046;48.774;8.732;2022-08-19T02:06:05;18.47;;;16.73;;
8001;SDS011;4046;48.774;8.732;2022-08-19T02:08:32;19.73;;;17.90;;
8001;SDS011;4046;48.774;8.732;2022-08-19T02:11:00;18.63;;;16.87;;
8001;SDS011;4046;48.774;8.732;2022-08-19T02:13:26;18.30;;;16.60;;
8001;SDS011;4046;48.774;8.732;2022-08-19T02:15:52;19.00;;;17.17;;
8001;SDS011;4046;48.774;8.732;2022-08-19T02:18:18;17.30;;;15.80;;
8001;SDS011;4046;48.774;8.732;2022-08-19T02:20:44;18.30;;;16.60;;
8001;SDS011;4046;48.774;8.732;2022-08-19T02:23:13;19.20;;;17.40;;
8001;SDS011;4046;48.774;8.732;2022-08-19T02:25:40;19.40;;;17.43;;
8001;SDS011;4046;48.774;8.732;2022-08-19T02:28:06;19.40;;;17.60;;
8001;SDS011;4046;48.774;8.732;2022-08-19T02:30:32;17.80;;;16.20;;
8001;SDS011;4046;48.774;8.732;2022-08-19T02:32:58;18.60;;;16.70;;
8001;SDS011;4046;48.774;8.732;2022-08-19T02:35:24;19.43;;;17.63;;
8001;SDS011;4046;48.774;8.732;2022-08-19T02:37:50;18.87;;;16.97;;
8001;SDS011;4046;48.774;8.732;2022-08-19T02:40:35;19.23;;;17.53;;
8001;SDS011;4046;48.774;8.732;2022-08-19T02:43:02;19.37;;;17.57;;
8001;SDS011;4046;48.774;8.732;2022-08-19T02:45:31;19.67;;;17.83;;
8001;SDS011;4046;48.774;8.732;2022-08-19T02:47:58;21.27;;;19.37;;
8001;SDS011;4046;48.774;8.732;2022-08-19T02:50:24;21.80;;;19.57;;
8001;SDS011;4046;48.774;8.732;2022-08-19T02:52:49;20.60;;;18.83;;
8001;SDS011;4046;48.774;8.732;2022-08-19T02:55:15;19.07;;;17.40;;
8001;SDS011;4046;48.774;8.732;2022-08-19T02:57:41;18.83;;;17.07;;
8001;SDS011;4046;48.774;8.732;2022-08-19T03:00:07;20.20;;;18.30;;
8001;SDS011;4046;48.774;8.732;2022-08-19T03:02:37;19.80;;;17.97;;
8001;SDS011;4046;48.774;8.732;2022-08-19T03:05:03;19.63;;;17.83;;
8001;SDS011;4046;48.774;8.732;2022-08-19T03:07:30;19.53;;;17.73;;
8001;SDS011;4046;48.774;8.732;2022-08-19T03:09:56;19.17;;;17.37;;
8001;SDS011;4046;48.774;8.732;2022-08-19T03:12:22;22.87;;;20.87;;
8001;SDS011;4046;48.774;8.732;2022-08-19T03:14:47;21.03;;;19.03;;
8001;SDS011;4046;48.774;8.732;2022-08-19T03:17:13;19.20;;;17.50;;
8001;SDS011;4046;48.774;8.732;2022-08-19T03:19:39;18.57;;;16.87;;
8001;SDS011;4046;48.774;8.732;2022-08-19T03:22:04;19.00;;;17.30;;
8001;SDS011;4046;48.774;8.732;2022-08-19T03:24:30;20.67;;;18.87;;
8001;SDS011;4046;48.774;8.732;2022-08-19T03:26:56;18.90;;;17.00;;
8001;SDS011;4046;48.774;8.732;2022-08-19T03:29:24;19.80;;;18.10;;
8001;SDS011;4046;48.774;8.732;2022-08-19T03:31:54;20.10;;;18.30;;
8001;SDS011;4046;48.774;8.732;2022-08-19T03:34:24;20.50;;;18.60;;
8001;SDS011;4046;48.774;8.732;2022-08-19T03:36:52;20.33;;;18.30;;
8001;SDS011;4046;48.774;8.732;2022-08-19T03:39:23;19.37;;;17.60;;
8001;SDS011;4046;48.774;8.732;2022-08-19T03:41:50;20.60;;;18.70;;
8001;SDS011;4046;48.774;8.732;2022-08-19T03:44:18;19.90;;;18.20;;
8001;SDS011;4046;48.774;8.732;2022-08-19T03:46:47;19.07;;;17.37;;
8001;SDS011;4046;48.774;8.732;2022-08-19T03:49:14;20.83;;;18.93;;
8001;SDS011;4046;48.774;8.732;2022-08-19T03:51:41;21.23;;;19.23;;
8001;SDS011;4046;48.774;8.732;2022-08-19T03:54:09;21.30;;;19.33;;
8001;SDS011;4046;48.774;8.732;2022-08-19T03:56:37;21.07;;;19.17;;
8001;SDS011;4046;48.774;8.732;2022-08-19T03:59:04;21.43;;;19.43;;
8001;SDS011;4046;48.774;8.732;2022-08-19T04:01:32;21.70;;;19.70;;
8001;SDS011;4046;48.774;8.732;2022-08-19T04:04:00;21.13;;;18.93;;
8001;SDS011;4046;48.774;8.732;2022-08-19T04:06:28;21.73;;;19.70;;
8001;SDS011;4046;48.774;8.732;2022-08-19T04:08:56;22.13;;;20.13;;
8001;SDS011;4046;48.774;8.732;2022-08-19T04:11:24;21.60;;;19.67;;
8001;SDS011;4046;48.774;8.732;2022-08-19T04:13:52;20.60;;;18.60;;
8001;SDS011;4046;48.774;8.732;2022-08-19T04:16:20;20.63;;;18.50;;
8001;SDS011;4046;48.774;8.732;2022-08-19T04:18:47;20.77;;;18.80;;
8001;SDS011;4046;48.774;8.732;2022-08-19T04:21:18;22.40;;;20.03;;
8001;SDS011;4046;48.774;8.732;2022-08-19T04:23:46;20.90;;;18.90;;
8001;SDS011;4046;48.774;8.732;2022-08-19T04:26:13;20.60;;;18.70;;
8001;SDS011;4046;48.774;8.732;2022-08-19T04:28:44;21.13;;;19.13;;
8001;SDS011;4046;48.774;8.732;2022-08-19T04:31:14;21.53;;;19.53;;
8001;SDS011;4046;48.774;8.732;2022-08-19T04:33:41;19.40;;;17.67;;
8001;SDS011;4046;48.774;8.732;2022-08-19T04:36:07;21.53;;;19.53;;
8001;SDS011;4046;48.774;8.732;2022-08-19T04:38:33;21.43;;;19.33;;
8001;SDS011;4046;48.774;8.732;2022-08-19T04:40:59;21.23;;;19.23;;
8001;SDS011;4046;48.774;8.732;2022-08-19T04:43:44;21.67;;;19.77;;
8001;SDS011;4046;48.774;8.732;2022-08-19T04:46:14;21.97;;;20.07;;
8001;SDS011;4046;48.774;8.732;2022-08-19T04:48:40;22.67;;;20.60;;
8001;SDS011;4046;48.774;8.732;2022-08-19T04:51:07;20.90;;;19.00;;
8001;SDS011;4046;48.774;8.732;2022-08-19T04:53:35;21.90;;;19.80;;
8001;SDS011;4046;48.774;8.732;2022-08-19T04:56:10;21.40;;;19.30;;
8001;SDS011;4046;48.774;8.732;2022-08-19T04:58:41;21.93;;;19.93;;
8001;SDS011;4046;48.774;8.732;2022-08-19T05:01:17;21.17;;;19.00;;
8001;SDS011;4046;48.774;8.732;2022-08-19T05:03:44;21.37;;;19.50;;
8001;SDS011;4046;48.774;8.732;2022-08-19T05:06:11;21.93;;;19.87;;
8001;SDS011;4046;48.774;8.732;2022-08-19T05:08:40;22.67;;;20.57;;
8001;SDS011;4046;48.774;8.732;2022-08-19T05:11:16;22.83;;;20.63;;
8001;SDS011;4046;48.774;8.732;2022-08-19T05:13:47;22.10;;;20.13;;
8001;SDS011;4046;48.774;8.732;2022-08-19T05:16:17;23.43;;;21.13;;
8001;SDS011;4046;48.774;8.732;2022-08-19T05:18:45;22.10;;;20.00;;
8001;SDS011;4046;48.774;8.732;2022-08-19T05:21:30;22.40;;;20.17;;
8001;SDS011;4046;48.774;8.732;2022-08-19T05:24:16;21.33;;;19.27;;
8001;SDS011;4046;48.774;8.732;2022-08-19T05:26:45;22.57;;;20.37;;
8001;SDS011;4046;48.774;8.732;2022-08-19T05:29:13;25.03;;;22.43;;
8001;SDS011;4046;48.774;8.732;2022-08-19T05:31:41;23.47;;;21.00;;
8001;SDS011;4046;48.774;8.732;2022-08-19T05:34:07;23.70;;;21.30;;
8001;SDS011;4046;48.774;8.732;2022-08-19T05:36:34;22.90;;;20.67;;
8001;SDS011;4046;48.774;8.732;2022-08-19T05:39:04;22.30;;;20.20;;
8001;SDS011;4046;48.774;8.732;2022-08-19T05:41:31;22.63;;;20.60;;
8001;SDS011;4046;48.774;8.732;2022-08-19T05:43:57;22.40;;;20.23;;
8001;SDS011;4046;48.774;8.732;2022-08-19T05:46:23;23.03;;;20.83;;
8001;SDS011;4046;48.774;8.732;2022-08-19T05:48:49;23.70;;;21.40;;
8001;SDS011;4046;48.774;8.732;2022-08-19T05:51:15;23.60;;;21.37;;
8001;SDS011;4046;48.774;8.732;2022-08-19T05:53:41;23.83;;;21.73;;
8001;SDS011;4046;48.774;8.732;2022-08-19T05:56:10;23.33;;;21.13;;
8001;SDS011;4046;48.774;8.732;2022-08-19T05:58:39;23.60;;;21.40;;
8001;SDS011;4046;48.774;8.732;2022-08-19T06:01:09;25.43;;;22.57;;
8001;SDS011;4046;48.774;8.732;2022-08-19T06:03:36;21.97;;;19.83;;
8001;SDS011;4046;48.774;8.732;2022-08-19T06:06:05;22.37;;;20.07;;
8001;SDS011;4046;48.774;8.732;2022-08-19T06:08:33;24.20;;;21.87;;
8001;SDS011;4046;48.774;8.732;2022-08-19T06:11:18;24.07;;;21.57;;
8001;SDS011;4046;48.774;8.732;2022-08-19T06:13:48;24.13;;;21.83;;
8001;SDS011;4046;48.774;8.732;2022-08-19T06:16:18;22.63;;;20.40;;
8001;SDS011;4046;48.774;8.732;2022-08-19T06:18:53;24.43;;;22.10;;
8001;SDS011;4046;48.774;8.732;2022-08-19T06:21:22;22.83;;;20.60;;
8001;SDS011;4046;48.774;8.732;2022-08-19T06:23:50;23.57;;;21.20;;
8001;SDS011;4046;48.774;8.732;2022-08-19T06:26:17;23.20;;;20.80;;
8001;SDS011;4046;48.774;8.732;2022-08-19T06:28:45;22.33;;;20.33;;
8001;SDS011;4046;48.774;8.732;2022-08-19T06:31:18;20.80;;;18.87;;
8001;SDS011;4046;48.774;8.732;2022-08-19T06:33:47;22.03;;;19.97;;
8001;SDS011;4046;48.774;8.732;2022-08-19T06:36:21;22.50;;;20.30;;
8001;SDS011;4046;48.774;8.732;2022-08-19T06:39:10;22.20;;;20.10;;
8001;SDS011;4046;48.774;8.732;2022-08-19T06:41:38;21.93;;;19.90;;
8001;SDS011;4046;48.774;8.732;2022-08-19T06:44:07;21.27;;;19.37;;
8001;SDS011;4046;48.774;8.732;2022-08-19T06:46:34;20.57;;;18.77;;
8001;SDS011;4046;48.774;8.732;2022-08-19T06:49:00;22.13;;;18.43;;
8001;SDS011;4046;48.774;8.732;2022-08-19T06:51:26;21.50;;;19.40;;
8001;SDS011;4046;48.774;8.732;2022-08-19T06:53:53;21.47;;;19.47;;
8001;SDS011;4046;48.774;8.732;2022-08-19T06:56:24;20.50;;;18.60;;
8001;SDS011;4046;48.774;8.732;2022-08-19T06:58:59;20.30;;;18.40;;
8001;SDS011;4046;48.774;8.732;2022-08-19T07:01:26;22.00;;;19.93;;
8001;SDS011;4046;48.774;8.732;2022-08-19T07:03:52;20.40;;;18.60;;
8001;SDS011;4046;48.774;8.732;2022-08-19T07:06:20;20.07;;;17.93;;
8001;SDS011;4046;48.774;8.732;2022-08-19T07:08:47;20.17;;;18.30;;
8001;SDS011;4046;48.774;8.732;2022-08-19T07:11:14;20.00;;;18.23;;
8001;SDS011;4046;48.774;8.732;2022-08-19T07:13:46;19.80;;;17.83;;
8001;SDS011;4046;48.774;8.732;2022-08-19T07:16:15;21.13;;;18.93;;
8001;SDS011;4046;48.774;8.732;2022-08-19T07:18:44;19.83;;;18.03;;
8001;SDS011;4046;48.774;8.732;2022-08-19T07:21:16;20.80;;;18.77;;
8001;SDS011;4046;48.774;8.732;2022-08-19T07:23:44;18.67;;;16.97;;
8001;SDS011;4046;48.774;8.732;2022-08-19T07:28:41;20.77;;;18.97;;
8001;SDS011;4046;48.774;8.732;2022-08-19T07:31:12;19.90;;;18.10;;
8001;SDS011;4046;48.774;8.732;2022-08-19T07:33:43;19.30;;;17.47;;
8001;SDS011;4046;48.774;8.732;2022-08-19T07:36:11;19.53;;;17.70;;
8001;SDS011;4046;48.774;8.732;2022-08-19T07:38:42;19.30;;;17.50;;
8001;SDS011;4046;48.774;8.732;2022-08-19T07:41:11;19.80;;;18.00;;
8001;SDS011;4046;48.774;8.732;2022-08-19T07:43:38;19.37;;;17.47;;
8001;SDS011;4046;48.774;8.732;2022-08-19T07:46:04;18.67;;;16.73;;
8001;SDS011;4046;48.774;8.732;2022-08-19T07:48:31;19.53;;;17.77;;
8001;SDS011;4046;48.774;8.732;2022-08-19T07:50:58;19.70;;;17.90;;
8001;SDS011;4046;48.774;8.732;2022-08-19T07:53:30;19.10;;;17.40;;
8001;SDS011;4046;48.774;8.732;2022-08-19T07:55:58;18.43;;;16.87;;
8001;SDS011;4046;48.774;8.732;2022-08-19T07:58:33;25.20;;;16.17;;
8001;SDS011;4046;48.774;8.732;2022-08-19T08:01:03;18.67;;;16.87;;
8001;SDS011;4046;48.774;8.732;2022-08-19T08:03:30;19.63;;;17.83;;
8001;SDS011;4046;48.774;8.732;2022-08-19T08:06:15;16.40;;;15.00;;
8001;SDS011;4046;48.774;8.732;2022-08-19T08:09:00;17.30;;;15.80;;
8001;SDS011;4046;48.774;8.732;2022-08-19T08:14:21;16.20;;;14.87;;
8001;SDS011;4046;48.774;8.732;2022-08-19T08:16:52;15.33;;;14.03;;
8001;SDS011;4046;48.774;8.732;2022-08-19T08:19:19;15.50;;;14.20;;
8001;SDS011;4046;48.774;8.732;2022-08-19T08:21:47;15.07;;;13.57;;
8001;SDS011;4046;48.774;8.732;2022-08-19T08:24:15;15.17;;;13.93;;
8001;SDS011;4046;48.774;8.732;2022-08-19T08:26:41;14.03;;;12.83;;
8001;SDS011;4046;48.774;8.732;2022-08-19T08:29:09;16.60;;;15.10;;
8001;SDS011;4046;48.774;8.732;2022-08-19T08:31:37;14.57;;;13.37;;
8001;SDS011;4046;48.774;8.732;2022-08-19T08:34:08;15.50;;;14.20;;
8001;SDS011;4046;48.774;8.732;2022-08-19T08:36:39;16.63;;;15.07;;
8001;SDS011;4046;48.774;8.732;2022-08-19T08:39:08;14.83;;;13.63;;
8001;SDS011;4046;48.774;8.732;2022-08-19T08:41:36;15.00;;;13.70;;
8001;SDS011;4046;48.774;8.732;2022-08-19T08:44:16;14.57;;;13.47;;
8001;SDS011;4046;48.774;8.732;2022-08-19T08:46:49;15.00;;;13.73;;
8001;SDS011;4046;48.774;8.732;2022-08-19T08:49:28;16.10;;;14.73;;
8001;SDS011;4046;48.774;8.732;2022-08-19T08:52:25;15.80;;;14.37;;
8001;SDS011;4046;48.774;8.732;2022-08-19T08:54:59;15.97;;;14.57;;
8001;SDS011;4046;48.774;8.732;2022-08-19T08:57:30;16.80;;;15.30;;
8001;SDS011;4046;48.774;8.732;2022-08-19T09:00:02;17.07;;;15.57;;
8001;SDS011;4046;48.774;8.732;2022-08-19T09:02:33;16.70;;;15.30;;
8001;SDS011;4046;48.774;8.732;2022-08-19T09:04:59;16.37;;;15.00;;
8001;SDS011;4046;48.774;8.732;2022-08-19T09:10:10;15.80;;;14.50;;
8001;SDS011;4046;48.774;8.732;2022-08-19T09:12:53;16.93;;;15.50;;
8001;SDS011;4046;48.774;8.732;2022-08-19T09:15:38;16.83;;;15.20;;
8001;SDS011;4046;48.774;8.732;2022-08-19T09:18:37;16.27;;;14.80;;
8001;SDS011;4046;48.774;8.732;2022-08-19T09:21:05;16.27;;;14.97;;
8001;SDS011;4046;48.774;8.732;2022-08-19T09:23:32;15.23;;;13.80;;
8001;SDS011;4046;48.774;8.732;2022-08-19T09:25:58;16.07;;;14.77;;
8001;SDS011;4046;48.774;8.732;2022-08-19T09:28:24;16.17;;;14.67;;
8001;SDS011;4046;48.774;8.732;2022-08-19T09:30:50;16.10;;;14.70;;
8001;SDS011;4046;48.774;8.732;2022-08-19T09:33:16;15.67;;;14.27;;
8001;SDS011;4046;48.774;8.732;2022-08-19T09:35:42;17.17;;;15.67;;
8001;SDS011;4046;48.774;8.732;2022-08-19T09:38:08;15.87;;;14.50;;
8001;SDS011;4046;48.774;8.732;2022-08-19T09:40:34;15.90;;;14.50;;
8001;SDS011;4046;48.774;8.732;2022-08-19T09:43:00;15.70;;;14.30;;
8001;SDS011;4046;48.774;8.732;2022-08-19T09:45:27;16.33;;;14.93;;
8001;SDS011;4046;48.774;8.732;2022-08-19T09:47:54;14.90;;;13.33;;
8001;SDS011;4046;48.774;8.732;2022-08-19T09:50:21;15.00;;;13.50;;
8001;SDS011;4046;48.774;8.732;2022-08-19T09:52:47;15.63;;;14.10;;
8001;SDS011;4046;48.774;8.732;2022-08-19T09:55:13;15.40;;;13.90;;
8001;SDS011;4046;48.774;8.732;2022-08-19T09:57:41;15.17;;;13.63;;
8001;SDS011;4046;48.774;8.732;2022-08-19T10:00:07;15.73;;;14.27;;
8001;SDS011;4046;48.774;8.732;2022-08-19T10:02:34;14.47;;;12.93;;
8001;SDS011;4046;48.774;8.732;2022-08-19T10:05:00;13.90;;;12.80;;
8001;SDS011;4046;48.774;8.732;2022-08-19T10:07:45;15.43;;;13.93;;
8001;SDS011;4046;48.774;8.732;2022-08-19T10:10:11;14.67;;;13.27;;
8001;SDS011;4046;48.774;8.732;2022-08-19T10:12:37;13.63;;;12.33;;
8001;SDS011;4046;48.774;8.732;2022-08-19T10:15:04;13.77;;;12.40;;
8001;SDS011;4046;48.774;8.732;2022-08-19T10:17:31;12.67;;;11.67;;
8001;SDS011;4046;48.774;8.732;2022-08-19T10:19:58;12.90;;;11.90;;
8001;SDS011;4046;48.774;8.732;2022-08-19T10:22:24;12.13;;;11.13;;
8001;SDS011;4046;48.774;8.732;2022-08-19T10:24:51;12.60;;;11.60;;
8001;SDS011;4046;48.774;8.732;2022-08-19T10:27:17;13.23;;;12.20;;
8001;SDS011;4046;48.774;8.732;2022-08-19T10:29:43;11.70;;;10.77;;
8001;SDS011;4046;48.774;8.732;2022-08-19T10:32:09;11.07;;;10.20;;
8001;SDS011;4046;48.774;8.732;2022-08-19T10:34:38;10.33;;;9.43;;
8001;SDS011;4046;48.774;8.732;2022-08-19T10:37:04;9.77;;;8.97;;
8001;SDS011;4046;48.774;8.732;2022-08-19T10:39:31;9.80;;;9.00;;
8001;SDS011;4046;48.774;8.732;2022-08-19T10:41:58;10.13;;;9.20;;
8001;SDS011;4046;48.774;8.732;2022-08-19T10:44:25;9.40;;;8.70;;
8001;SDS011;4046;48.774;8.732;2022-08-19T10:46:50;9.37;;;8.57;;
8001;SDS011;4046;48.774;8.732;2022-08-19T10:49:17;9.23;;;8.43;;
8001;SDS011;4046;48.774;8.732;2022-08-19T10:51:44;11.10;;;8.97;;
8001;SDS011;4046;48.774;8.732;2022-08-19T10:54:29;9.73;;;9.03;;
8001;SDS011;4046;48.774;8.732;2022-08-19T10:57:30;10.50;;;9.60;;
8001;SDS011;4046;48.774;8.732;2022-08-19T10:59:56;9.20;;;8.40;;
8001;SDS011;4046;48.774;8.732;2022-08-19T11:02:22;11.10;;;10.30;;
8001;SDS011;4046;48.774;8.732;2022-08-19T11:04:48;9.70;;;9.00;;
8001;SDS011;4046;48.774;8.732;2022-08-19T11:07:16;9.53;;;8.70;;
8001;SDS011;4046;48.774;8.732;2022-08-19T11:09:42;9.70;;;9.00;;
8001;SDS011;4046;48.774;8.732;2022-08-19T11:12:09;9.17;;;8.37;;
8001;SDS011;4046;48.774;8.732;2022-08-19T11:14:35;10.40;;;9.50;;
8001;SDS011;4046;48.774;8.732;2022-08-19T11:17:03;10.27;;;9.40;;
8001;SDS011;4046;48.774;8.732;2022-08-19T11:19:29;9.80;;;9.10;;
8001;SDS011;4046;48.774;8.732;2022-08-19T11:21:56;10.43;;;9.57;;
8001;SDS011;4046;48.774;8.732;2022-08-19T11:24:22;10.43;;;9.53;;
8001;SDS011;4046;48.774;8.732;2022-08-19T11:26:51;9.27;;;8.40;;
8001;SDS011;4046;48.774;8.732;2022-08-19T11:29:22;8.67;;;8.07;;
8001;SDS011;4046;48.774;8.732;2022-08-19T11:31:50;8.07;;;7.47;;
8001;SDS011;4046;48.774;8.732;2022-08-19T11:34:20;8.53;;;7.83;;
8001;SDS011;4046;48.774;8.732;2022-08-19T11:36:47;8.50;;;7.90;;
8001;SDS011;4046;48.774;8.732;2022-08-19T11:39:16;8.33;;;7.83;;
8001;SDS011;4046;48.774;8.732;2022-08-19T11:41:44;8.30;;;7.70;;
8001;SDS011;4046;48.774;8.732;2022-08-19T11:44:10;8.33;;;7.73;;
8001;SDS011;4046;48.774;8.732;2022-08-19T11:46:36;7.90;;;7.33;;
8001;SDS011;4046;48.774;8.732;2022-08-19T11:49:03;8.93;;;8.20;;
8001;SDS011;4046;48.774;8.732;2022-08-19T11:51:30;8.50;;;7.80;;
8001;SDS011;4046;48.774;8.732;2022-08-19T11:53:57;8.10;;;7.53;;
8001;SDS011;4046;48.774;8.732;2022-08-19T11:56:25;8.83;;;8.23;;
8001;SDS011;4046;48.774;8.732;2022-08-19T11:58:52;8.17;;;7.57;;
8001;SDS011;4046;48.774;8.732;2022-08-19T12:01:20;7.97;;;7.23;;
8001;SDS011;4046;48.774;8.732;2022-08-19T12:03:47;8.10;;;7.40;;
8001;SDS011;4046;48.774;8.732;2022-08-19T12:06:16;8.30;;;7.50;;
8001;SDS011;4046;48.774;8.732;2022-08-19T12:08:45;9.03;;;8.10;;
8001;SDS011;4046;48.774;8.732;2022-08-19T12:11:12;8.53;;;7.93;;
8001;SDS011;4046;48.774;8.732;2022-08-19T12:13:39;9.73;;;8.93;;
8001;SDS011;4046;48.774;8.732;2022-08-19T12:16:24;8.80;;;8.30;;
8001;SDS011;4046;48.774;8.732;2022-08-19T12:18:52;9.23;;;8.63;;
8001;SDS011;4046;48.774;8.732;2022-08-19T12:21:23;9.03;;;8.33;;
8001;SDS011;4046;48.774;8.732;2022-08-19T12:23:53;8.97;;;8.20;;
8001;SDS011;4046;48.774;8.732;2022-08-19T12:26:19;9.27;;;8.47;;
8001;SDS011;4046;48.774;8.732;2022-08-19T12:28:46;9.23;;;8.63;;
8001;SDS011;4046;48.774;8.732;2022-08-19T12:31:13;8.30;;;7.80;;
8001;SDS011;4046;48.774;8.732;2022-08-19T12:33:40;9.10;;;8.50;;
8001;SDS011;4046;48.774;8.732;2022-08-19T12:36:08;8.37;;;7.77;;
8001;SDS011;4046;48.774;8.732;2022-08-19T12:38:35;8.10;;;7.60;;
8001;SDS011;4046;48.774;8.732;2022-08-19T12:41:01;8.97;;;8.20;;
8001;SDS011;4046;48.774;8.732;2022-08-19T12:43:30;9.23;;;8.33;;
8001;SDS011;4046;48.774;8.732;2022-08-19T12:45:56;9.60;;;8.80;;
8001;SDS011;4046;48.774;8.732;2022-08-19T12:48:22;9.27;;;8.60;;
8001;SDS011;4046;48.774;8.732;2022-08-19T12:50:47;9.13;;;8.53;;
8001;SDS011;4046;48.774;8.732;2022-08-19T12:53:13;9.80;;;9.10;;
8001;SDS011;4046;48.774;8.732;2022-08-19T12:55:41;10.27;;;9.47;;
8001;SDS011;4046;48.774;8.732;2022-08-19T12:58:08;10.97;;;10.00;;
8001;SDS011;4046;48.774;8.732;2022-08-19T13:00:34;10.80;;;10.10;;
8001;SDS011;4046;48.774;8.732;2022-08-19T13:03:00;9.87;;;9.23;;
8001;SDS011;4046;48.774;8.732;2022-08-19T13:05:28;9.67;;;8.90;;
8001;SDS011;4046;48.774;8.732;2022-08-19T13:07:57;10.07;;;9.27;;
8001;SDS011;4046;48.774;8.732;2022-08-19T13:10:25;9.97;;;9.37;;
8001;SDS011;4046;48.774;8.732;2022-08-19T13:12:55;10.30;;;9.70;;
8001;SDS011;4046;48.774;8.732;2022-08-19T13:15:22;11.43;;;10.60;;
8001;SDS011;4046;48.774;8.732;2022-08-19T13:17:49;10.93;;;10.13;;
8001;SDS011;4046;48.774;8.732;2022-08-19T13:20:17;10.40;;;9.50;;
8001;SDS011;4046;48.774;8.732;2022-08-19T13:22:44;10.03;;;9.33;;
8001;SDS011;4046;48.774;8.732;2022-08-19T13:25:12;10.50;;;9.80;;
8001;SDS011;4046;48.774;8.732;2022-08-19T13:27:39;10.73;;;9.93;;
8001;SDS011;4046;48.774;8.732;2022-08-19T13:30:07;10.07;;;9.27;;
8001;SDS011;4046;48.774;8.732;2022-08-19T13:32:53;11.07;;;10.17;;
8001;SDS011;4046;48.774;8.732;2022-08-19T13:38:14;10.30;;;9.60;;
8001;SDS011;4046;48.774;8.732;2022-08-19T13:40:42;11.10;;;10.30;;
8001;SDS011;4046;48.774;8.732;2022-08-19T13:43:09;11.13;;;10.33;;
8001;SDS011;4046;48.774;8.732;2022-08-19T13:45:35;11.70;;;10.90;;
8001;SDS011;4046;48.774;8.732;2022-08-19T13:48:03;10.83;;;10.13;;
8001;SDS011;4046;48.774;8.732;2022-08-19T13:50:35;11.57;;;10.77;;
8001;SDS011;4046;48.774;8.732;2022-08-19T13:53:05;11.20;;;10.40;;
8001;SDS011;4046;48.774;8.732;2022-08-19T13:55:31;10.30;;;9.50;;
8001;SDS011;4046;48.774;8.732;2022-08-19T13:57:57;11.60;;;10.80;;
8001;SDS011;4046;48.774;8.732;2022-08-19T14:00:27;10.97;;;10.20;;
8001;SDS011;4046;48.774;8.732;2022-08-19T14:02:56;11.00;;;10.30;;
8001;SDS011;4046;48.774;8.732;2022-08-19T14:05:23;11.47;;;10.70;;
8001;SDS011;4046;48.774;8.732;2022-08-19T14:07:50;10.40;;;9.70;;
8001;SDS011;4046;48.774;8.732;2022-08-19T14:10:16;12.03;;;10.80;;
8001;SDS011;4046;48.774;8.732;2022-08-19T14:12:42;10.97;;;10.27;;
8001;SDS011;4046;48.774;8.732;2022-08-19T14:15:09;10.43;;;9.83;;
8001;SDS011;4046;48.774;8.732;2022-08-19T14:17:39;11.37;;;10.47;;
8001;SDS011;4046;48.774;8.732;2022-08-19T14:20:07;10.83;;;10.03;;
8001;SDS011;4046;48.774;8.732;2022-08-19T14:22:39;10.83;;;10.10;;
8001;SDS011;4046;48.774;8.732;2022-08-19T14:25:07;10.80;;;9.83;;
8001;SDS011;4046;48.774;8.732;2022-08-19T14:27:37;11.00;;;10.30;;
8001;SDS011;4046;48.774;8.732;2022-08-19T14:30:05;10.30;;;9.40;;
8001;SDS011;4046;48.774;8.732;2022-08-19T14:32:33;10.20;;;9.60;;
8001;SDS011;4046;48.774;8.732;2022-08-19T14:34:59;11.30;;;10.33;;
8001;SDS011;4046;48.774;8.732;2022-08-19T14:37:25;10.67;;;9.97;;
8001;SDS011;4046;48.774;8.732;2022-08-19T14:39:51;11.33;;;10.50;;
8001;SDS011;4046;48.774;8.732;2022-08-19T14:42:17;10.13;;;9.43;;
8001;SDS011;4046;48.774;8.732;2022-08-19T14:44:42;10.10;;;9.40;;
8001;SDS011;4046;48.774;8.732;2022-08-19T14:47:08;9.33;;;8.73;;
8001;SDS011;4046;48.774;8.732;2022-08-19T14:49:35;10.93;;;10.03;;
8001;SDS011;4046;48.774;8.732;2022-08-19T14:52:01;10.87;;;10.17;;
8001;SDS011;4046;48.774;8.732;2022-08-19T14:54:28;9.53;;;8.93;;
8001;SDS011;4046;48.774;8.732;2022-08-19T14:56:54;10.20;;;9.60;;
8001;SDS011;4046;48.774;8.732;2022-08-19T14:59:20;11.43;;;10.63;;
8001;SDS011;4046;48.774;8.732;2022-08-19T15:01:46;10.87;;;9.97;;
8001;SDS011;4046;48.774;8.732;2022-08-19T15:04:12;10.93;;;10.03;;
8001;SDS011;4046;48.774;8.732;2022-08-19T15:06:37;11.50;;;10.63;;
8001;SDS011;4046;48.774;8.732;2022-08-19T15:09:04;10.23;;;9.53;;
8001;SDS011;4046;48.774;8.732;2022-08-19T15:11:30;10.73;;;9.90;;
8001;SDS011;4046;48.774;8.732;2022-08-19T15:13:58;10.73;;;9.80;;